createdAt,value
2022-09-04T00:00:28.495Z,100.00
2022-09-04T00:03:23.236Z,100.00
2022-09-04T00:06:00.918Z,100.00
2022-09-04T00:08:33.685Z,100.00
2022-09-04T00:11:08.747Z,100.00
2022-09-04T00:13:43.826Z,100.00
2022-09-04T00:16:22.614Z,100.00
2022-09-04T00:19:08.846Z,100.00
2022-09-04T00:21:59.332Z,100.00
2022-09-04T00:24:42.102Z,100.00
2022-09-04T00:27:21.449Z,100.00
2022-09-04T00:30:06.535Z,100.00
2022-09-04T00:32:51.850Z,100.00
2022-09-04T00:35:44.692Z,100.00
2022-09-04T00:38:53.996Z,100.00
2022-09-04T00:41:34.955Z,100.00
2022-09-04T00:44:33.330Z,100.00
2022-09-04T00:47:13.665Z,100.00
2022-09-04T00:50:02.532Z,100.00
2022-09-04T00:53:06.999Z,100.00
2022-09-04T00:56:01.010Z,100.00
2022-09-04T00:58:48.260Z,100.00
2022-09-04T01:01:22.428Z,100.00
2022-09-04T01:04:02.747Z,100.00
2022-09-04T01:07:05.976Z,100.00
2022-09-04T01:09:54.367Z,100.00
2022-09-04T01:12:36.670Z,100.00
2022-09-04T01:15:28.796Z,100.00
2022-09-04T01:18:13.973Z,100.00
2022-09-04T01:20:52.551Z,100.00
2022-09-04T01:23:41.180Z,100.00
2022-09-04T01:26:28.178Z,100.00
2022-09-04T01:29:14.445Z,100.00
2022-09-04T01:31:57.521Z,100.00
2022-09-04T01:35:02.418Z,100.00
2022-09-04T01:38:04.245Z,100.00
2022-09-04T01:40:48.494Z,100.00
2022-09-04T01:43:21.140Z,100.00
2022-09-04T01:46:33.567Z,100.00
2022-09-04T01:49:05.183Z,100.00
2022-09-04T01:51:50.728Z,100.00
2022-09-04T01:54:36.262Z,100.00
2022-09-04T01:57:24.127Z,100.00
2022-09-04T02:00:09.638Z,100.00
2022-09-04T02:02:44.255Z,100.00
2022-09-04T02:06:01.730Z,100.00
2022-09-04T02:08:49.981Z,100.00
2022-09-04T02:11:27.978Z,100.00
2022-09-04T02:14:23.903Z,100.00
2022-09-04T02:17:12.569Z,100.00
2022-09-04T02:20:29.700Z,100.00
2022-09-04T02:23:05.524Z,100.00
2022-09-04T02:25:45.004Z,100.00
2022-09-04T02:28:43.029Z,100.00
2022-09-04T02:31:29.738Z,100.00
2022-09-04T02:33:56.529Z,100.00
2022-09-04T02:36:33.953Z,100.00
2022-09-04T02:39:39.872Z,100.00
2022-09-04T02:42:32.417Z,100.00
2022-09-04T02:45:08.126Z,100.00
2022-09-04T02:47:35.101Z,100.00
2022-09-04T02:50:23.110Z,100.00
2022-09-04T02:53:03.215Z,100.00
2022-09-04T02:56:09.601Z,100.00
2022-09-04T02:59:13.422Z,100.00
2022-09-04T03:01:49.998Z,100.00
2022-09-04T03:04:42.787Z,100.00
2022-09-04T03:07:18.159Z,100.00
2022-09-04T03:09:56.266Z,100.00
2022-09-04T03:12:41.481Z,100.00
2022-09-04T03:15:23.399Z,100.00
2022-09-04T03:18:19.876Z,100.00
2022-09-04T03:20:56.623Z,100.00
2022-09-04T03:23:42.249Z,100.00
2022-09-04T03:26:31.609Z,100.00
2022-09-04T03:29:05.131Z,100.00
2022-09-04T03:31:40.276Z,100.00
2022-09-04T03:34:16.336Z,100.00
2022-09-04T03:36:49.717Z,100.00
2022-09-04T03:39:29.376Z,100.00
2022-09-04T03:42:34.656Z,100.00
2022-09-04T03:45:20.016Z,100.00
2022-09-04T03:48:12.367Z,100.00
2022-09-04T03:51:28.365Z,100.00
2022-09-04T03:54:09.932Z,100.00
2022-09-04T03:56:45.836Z,100.00
2022-09-04T03:59:26.590Z,100.00
2022-09-04T04:02:15.242Z,100.00
2022-09-04T04:05:03.241Z,100.00
2022-09-04T04:07:58.803Z,100.00
2022-09-04T04:10:31.180Z,100.00
2022-09-04T04:13:10.409Z,100.00
2022-09-04T04:16:02.065Z,100.00
2022-09-04T04:18:37.989Z,100.00
2022-09-04T04:21:33.781Z,100.00
2022-09-04T04:24:39.037Z,100.00
2022-09-04T04:27:21.003Z,100.00
2022-09-04T04:30:00.998Z,100.00
2022-09-04T04:32:27.962Z,100.00
2022-09-04T04:35:12.718Z,100.00
2022-09-04T04:38:01.562Z,100.00
2022-09-04T04:40:28.317Z,100.00
2022-09-04T04:43:03.439Z,100.00
2022-09-04T04:45:51.347Z,100.00
2022-09-04T04:48:37.946Z,100.00
2022-09-04T04:51:40.746Z,100.00
2022-09-04T04:54:38.397Z,100.00
2022-09-04T04:57:20.348Z,100.00
2022-09-04T05:00:07.035Z,100.00
2022-09-04T05:02:55.674Z,100.00
2022-09-04T05:05:41.809Z,100.00
2022-09-04T05:08:54.276Z,100.00
2022-09-04T05:11:35.841Z,100.00
2022-09-04T05:14:27.687Z,100.00
2022-09-04T05:17:03.890Z,100.00
2022-09-04T05:20:08.292Z,97.47
2022-09-04T05:22:45.566Z,94.38
2022-09-04T05:25:43.366Z,92.49
2022-09-04T05:28:23.933Z,94.11
2022-09-04T05:31:42.110Z,97.08
2022-09-04T05:34:21.323Z,99.70
2022-09-04T05:37:00.385Z,100.00
2022-09-04T05:39:30.696Z,99.96
2022-09-04T05:42:06.941Z,96.73
2022-09-04T05:44:52.762Z,95.67
2022-09-04T05:47:30.645Z,95.02
2022-09-04T05:50:21.941Z,94.82
2022-09-04T05:53:19.611Z,97.37
2022-09-04T05:56:14.548Z,96.79
2022-09-04T05:58:50.614Z,98.86
2022-09-04T06:01:54.514Z,100.00
2022-09-04T06:04:45.875Z,100.00
2022-09-04T06:07:16.467Z,100.00
2022-09-04T06:10:07.374Z,98.96
2022-09-04T06:12:49.618Z,96.17
2022-09-04T06:15:35.326Z,95.42
2022-09-04T06:18:32.914Z,96.64
2022-09-04T06:21:12.011Z,96.07
2022-09-04T06:23:57.861Z,95.94
2022-09-04T06:26:45.898Z,96.35
2022-09-04T06:29:32.367Z,98.01
2022-09-04T06:32:23.186Z,99.13
2022-09-04T06:35:11.532Z,99.57
2022-09-04T06:38:07.172Z,100.00
2022-09-04T06:40:59.704Z,99.01
2022-09-04T06:43:48.865Z,99.88
2022-09-04T06:46:24.238Z,98.61
2022-09-04T06:49:14.024Z,97.60
2022-09-04T06:52:03.322Z,98.69
2022-09-04T06:54:40.646Z,97.83
2022-09-04T06:57:07.622Z,95.56
2022-09-04T06:59:54.627Z,94.37
2022-09-04T07:02:40.269Z,94.62
2022-09-04T07:05:25.175Z,95.71
2022-09-04T07:08:09.394Z,93.11
2022-09-04T07:10:59.708Z,95.92
2022-09-04T07:13:51.067Z,95.03
2022-09-04T07:16:39.939Z,91.91
2022-09-04T07:19:09.895Z,91.77
2022-09-04T07:22:07.549Z,90.84
2022-09-04T07:25:01.915Z,89.11
2022-09-04T07:27:55.904Z,87.18
2022-09-04T07:30:26.147Z,89.68
2022-09-04T07:33:35.359Z,89.35
2022-09-04T07:36:21.004Z,84.62
2022-09-04T07:39:09.539Z,81.38
2022-09-04T07:41:51.610Z,80.77
2022-09-04T07:44:24.372Z,79.51
2022-09-04T07:47:16.328Z,81.79
2022-09-04T07:50:09.433Z,78.29
2022-09-04T07:52:54.746Z,78.78
2022-09-04T07:55:43.600Z,79.01
2022-09-04T07:58:25.880Z,78.01
2022-09-04T08:01:09.247Z,77.36
2022-09-04T08:04:04.877Z,75.67
2022-09-04T08:06:37.748Z,74.53
2022-09-04T08:09:13.838Z,74.68
2022-09-04T08:11:58.277Z,74.21
2022-09-04T08:14:32.561Z,74.64
2022-09-04T08:17:20.963Z,74.06
2022-09-04T08:19:59.059Z,74.74
2022-09-04T08:22:39.102Z,75.93
2022-09-04T08:25:24.111Z,75.47
2022-09-04T08:28:09.311Z,73.94
2022-09-04T08:30:47.267Z,73.29
2022-09-04T08:33:28.341Z,72.55
2022-09-04T08:36:25.447Z,69.87
2022-09-04T08:39:14.940Z,71.66
2022-09-04T08:42:13.286Z,68.36
2022-09-04T08:44:51.887Z,66.42
2022-09-04T08:47:21.599Z,64.91
2022-09-04T08:50:23.937Z,62.95
2022-09-04T08:53:26.175Z,61.07
2022-09-04T08:56:37.795Z,60.21
2022-09-04T08:59:23.195Z,63.36
2022-09-04T09:02:03.384Z,61.34
2022-09-04T09:05:00.100Z,60.89
2022-09-04T09:07:54.686Z,57.43
2022-09-04T09:10:27.737Z,55.42
2022-09-04T09:13:15.729Z,56.79
2022-09-04T09:15:51.777Z,56.17
2022-09-04T09:18:40.411Z,54.86
2022-09-04T09:21:36.120Z,50.60
2022-09-04T09:24:35.909Z,50.96
2022-09-04T09:27:38.359Z,48.45
2022-09-04T09:30:14.762Z,45.69
2022-09-04T09:33:12.492Z,43.46
2022-09-04T09:36:12.222Z,43.00
2022-09-04T09:39:07.288Z,43.98
2022-09-04T09:41:34.020Z,37.89
2022-09-04T09:44:09.783Z,36.90
2022-09-04T09:47:05.811Z,36.97
2022-09-04T09:49:51.376Z,37.27
2022-09-04T09:52:53.051Z,36.98
2022-09-04T09:55:22.693Z,37.49
2022-09-04T09:58:26.454Z,38.06
2022-09-04T10:00:59.950Z,37.00
2022-09-04T10:03:39.125Z,38.31
2022-09-04T10:06:45.866Z,37.26
2022-09-04T10:09:37.398Z,35.88
2022-09-04T10:12:30.960Z,36.93
2022-09-04T10:15:06.624Z,37.08
2022-09-04T10:18:10.868Z,36.68
2022-09-04T10:21:10.505Z,37.64
2022-09-04T10:24:07.163Z,37.74
2022-09-04T10:26:48.997Z,35.63
2022-09-04T10:29:36.535Z,35.71
2022-09-04T10:32:03.274Z,37.11
2022-09-04T10:34:50.478Z,38.61
2022-09-04T10:37:17.236Z,43.04
2022-09-04T10:40:21.647Z,44.05
2022-09-04T10:43:19.289Z,45.75
2022-09-04T10:45:54.899Z,47.51
2022-09-04T10:48:46.724Z,41.42
2022-09-04T10:51:33.474Z,42.56
2022-09-04T10:54:21.566Z,44.45
2022-09-04T10:56:54.599Z,46.19
2022-09-04T11:00:08.043Z,47.33
2022-09-04T11:02:53.409Z,49.86
2022-09-04T11:05:44.499Z,49.92
2022-09-04T11:08:19.902Z,50.70
2022-09-04T11:11:19.324Z,50.43
2022-09-04T11:14:14.880Z,51.00
2022-09-04T11:17:19.750Z,52.67
2022-09-04T11:19:56.164Z,51.40
2022-09-04T11:22:44.302Z,49.91
2022-09-04T11:25:39.191Z,49.31
2022-09-04T11:28:19.666Z,48.60
2022-09-04T11:31:21.085Z,49.90
2022-09-04T11:34:15.821Z,53.75
2022-09-04T11:36:49.437Z,51.96
2022-09-04T11:39:47.459Z,51.33
2022-09-04T11:42:29.771Z,48.61
2022-09-04T11:45:27.024Z,49.91
2022-09-04T11:48:12.155Z,49.61
2022-09-04T11:51:02.786Z,48.78
2022-09-04T11:53:40.963Z,50.63
2022-09-04T11:56:32.211Z,49.32
2022-09-04T11:59:18.020Z,48.33
2022-09-04T12:02:18.586Z,48.82
2022-09-04T12:05:17.235Z,48.65
2022-09-04T12:08:07.197Z,46.30
2022-09-04T12:10:55.981Z,45.78
2022-09-04T12:13:47.480Z,43.55
2022-09-04T12:16:14.588Z,43.18
2022-09-04T12:18:58.498Z,43.45
2022-09-04T12:21:41.122Z,45.23
2022-09-04T12:24:39.238Z,45.80
2022-09-04T12:27:24.963Z,43.07
2022-09-04T12:30:14.984Z,42.02
2022-09-04T12:33:00.087Z,40.45
2022-09-04T12:35:56.103Z,38.52
2022-09-04T12:38:38.559Z,38.54
2022-09-04T12:41:20.125Z,38.45
2022-09-04T12:43:52.861Z,38.68
2022-09-04T12:46:56.010Z,37.39
2022-09-04T12:49:58.293Z,36.62
2022-09-04T12:52:43.603Z,39.29
2022-09-04T12:55:25.642Z,39.55
2022-09-04T12:58:21.513Z,40.97
2022-09-04T13:01:10.642Z,43.29
2022-09-04T13:03:46.794Z,44.86
2022-09-04T13:06:53.267Z,46.44
2022-09-04T13:09:39.044Z,48.23
2022-09-04T13:12:19.706Z,48.65
2022-09-04T13:15:04.964Z,49.16
2022-09-04T13:17:58.501Z,48.21
2022-09-04T13:20:43.571Z,49.76
2022-09-04T13:23:46.590Z,49.35
2022-09-04T13:26:42.876Z,49.04
2022-09-04T13:29:23.379Z,47.88
2022-09-04T13:31:56.679Z,48.83
2022-09-04T13:34:24.419Z,47.97
2022-09-04T13:37:11.901Z,48.37
2022-09-04T13:39:45.037Z,49.18
2022-09-04T13:42:42.509Z,50.98
2022-09-04T13:45:28.559Z,50.58
2022-09-04T13:48:11.683Z,51.54
2022-09-04T13:50:58.219Z,54.01
2022-09-04T13:53:40.003Z,52.48
2022-09-04T13:56:16.822Z,51.44
2022-09-04T13:58:49.660Z,50.54
2022-09-04T14:01:23.954Z,51.08
2022-09-04T14:03:59.463Z,51.02
2022-09-04T14:06:29.926Z,51.30
2022-09-04T14:09:05.123Z,50.71
2022-09-04T14:11:41.793Z,51.40
2022-09-04T14:14:15.031Z,51.15
2022-09-04T14:16:44.037Z,51.27
2022-09-04T14:19:32.443Z,51.29
2022-09-04T14:22:15.960Z,52.18
2022-09-04T14:24:45.989Z,50.77
2022-09-04T14:27:21.919Z,51.52
2022-09-04T14:30:08.576Z,52.00
2022-09-04T14:32:55.684Z,53.21
2022-09-04T14:35:46.928Z,54.30
2022-09-04T14:38:41.269Z,54.73
2022-09-04T14:41:36.079Z,53.83
2022-09-04T14:44:20.916Z,52.42
2022-09-04T14:47:25.516Z,53.23
2022-09-04T14:50:01.319Z,52.27
2022-09-04T14:52:37.785Z,50.69
2022-09-04T14:55:07.128Z,50.90
2022-09-04T14:57:47.635Z,50.67
2022-09-04T15:00:20.726Z,51.53
2022-09-04T15:03:02.506Z,50.69
2022-09-04T15:05:35.637Z,52.26
2022-09-04T15:08:10.937Z,53.64
2022-09-04T15:10:50.642Z,53.59
2022-09-04T15:13:31.403Z,53.74
2022-09-04T15:16:09.983Z,54.56
2022-09-04T15:18:53.632Z,53.28
2022-09-04T15:21:43.590Z,52.29
2022-09-04T15:24:16.341Z,52.89
2022-09-04T15:26:46.371Z,53.16
2022-09-04T15:29:19.392Z,54.06
2022-09-04T15:31:46.547Z,54.04
2022-09-04T15:34:24.596Z,53.47
2022-09-04T15:36:52.092Z,54.08
2022-09-04T15:39:32.938Z,54.09
2022-09-04T15:42:00.183Z,54.60
2022-09-04T15:44:41.150Z,54.58
2022-09-04T15:47:34.154Z,56.11
2022-09-04T15:50:17.294Z,56.52
2022-09-04T15:52:59.848Z,57.38
2022-09-04T15:55:31.495Z,57.41
2022-09-04T15:58:13.519Z,57.65
2022-09-04T16:01:06.670Z,57.61
2022-09-04T16:04:18.407Z,58.73
2022-09-04T16:06:54.222Z,59.46
2022-09-04T16:09:50.189Z,59.87
2022-09-04T16:12:35.198Z,60.08
2022-09-04T16:15:04.759Z,60.43
2022-09-04T16:17:33.398Z,61.20
2022-09-04T16:20:18.455Z,61.78
2022-09-04T16:22:51.658Z,61.63
2022-09-04T16:25:19.210Z,62.28
2022-09-04T16:27:50.587Z,62.64
2022-09-04T16:30:34.443Z,63.13
2022-09-04T16:33:03.911Z,64.11
2022-09-04T16:35:41.603Z,64.68
2022-09-04T16:38:23.901Z,65.11
2022-09-04T16:41:15.680Z,65.86
2022-09-04T16:44:14.693Z,66.38
2022-09-04T16:47:02.869Z,66.79
2022-09-04T16:49:57.546Z,67.45
2022-09-04T16:52:44.648Z,68.10
2022-09-04T16:55:32.230Z,69.32
2022-09-04T16:58:13.352Z,69.70
2022-09-04T17:01:13.968Z,69.44
2022-09-04T17:03:46.608Z,70.26
2022-09-04T17:06:32.196Z,70.78
2022-09-04T17:09:40.570Z,71.61
2022-09-04T17:12:38.277Z,71.81
2022-09-04T17:15:23.639Z,72.99
2022-09-04T17:17:53.864Z,75.07
2022-09-04T17:22:07.162Z,76.28
2022-09-04T17:28:57.772Z,77.13
2022-09-04T17:29:09.937Z,78.20
2022-09-04T17:29:38.253Z,80.31
2022-09-04T17:35:35.410Z,81.61
2022-09-04T17:40:35.106Z,82.03
2022-09-04T17:40:48.577Z,82.98
2022-09-04T17:42:13.974Z,87.76
2022-09-04T17:44:50.545Z,89.83
2022-09-04T17:47:34.677Z,92.79
2022-09-04T17:50:02.311Z,94.31
2022-09-04T17:52:53.336Z,96.95
2022-09-04T17:55:21.234Z,98.85
2022-09-04T17:57:56.575Z,100.00
2022-09-04T18:00:29.292Z,100.00
2022-09-04T18:03:04.288Z,100.00
2022-09-04T18:05:56.811Z,100.00
2022-09-04T18:08:32.778Z,100.00
2022-09-04T18:11:20.984Z,100.00
2022-09-04T18:14:11.363Z,100.00
2022-09-04T18:16:42.414Z,100.00
2022-09-04T18:19:29.493Z,100.00
2022-09-04T18:22:26.342Z,100.00
2022-09-04T18:25:16.871Z,100.00
2022-09-04T18:28:12.314Z,100.00
2022-09-04T18:37:10.293Z,100.00
2022-09-04T18:37:22.284Z,100.00
2022-09-04T18:37:22.453Z,100.00
2022-09-04T18:39:50.275Z,100.00
2022-09-04T18:48:54.926Z,100.00
2022-09-04T18:50:42.919Z,100.00
2022-09-04T18:50:48.965Z,100.00
2022-09-04T18:51:25.111Z,100.00
2022-09-04T18:54:01.606Z,100.00
2022-09-04T18:56:41.504Z,100.00
2022-09-04T18:59:30.896Z,100.00
2022-09-04T19:02:19.794Z,100.00
2022-09-04T19:04:46.737Z,100.00
2022-09-04T19:07:35.629Z,100.00
2022-09-04T19:10:20.042Z,100.00
2022-09-04T19:12:49.702Z,100.00
2022-09-04T19:15:36.862Z,100.00
2022-09-04T19:18:30.314Z,100.00
2022-09-04T19:21:12.538Z,100.00
2022-09-04T19:23:50.893Z,100.00
2022-09-04T19:26:52.647Z,100.00
2022-09-04T19:29:46.224Z,100.00
2022-09-04T19:32:32.263Z,100.00
2022-09-04T19:35:12.073Z,100.00
2022-09-04T19:44:36.651Z,100.00
2022-09-04T19:45:58.957Z,100.00
2022-09-04T19:46:11.434Z,100.00
2022-09-04T19:47:28.780Z,100.00
2022-09-04T19:53:18.472Z,100.00
2022-09-04T19:53:39.087Z,100.00
2022-09-04T19:56:29.984Z,100.00
2022-09-04T19:59:00.899Z,100.00
2022-09-04T20:01:39.009Z,100.00
2022-09-04T20:04:21.611Z,100.00
2022-09-04T20:06:52.780Z,100.00
2022-09-04T20:09:36.233Z,100.00
2022-09-04T20:12:19.590Z,100.00
2022-09-04T20:14:53.700Z,100.00
2022-09-04T20:17:44.795Z,100.00
2022-09-04T20:20:26.113Z,100.00
2022-09-04T20:23:34.769Z,100.00
2022-09-04T20:26:23.603Z,100.00
2022-09-04T20:29:18.913Z,100.00
2022-09-04T20:32:00.590Z,100.00
2022-09-04T20:34:40.065Z,100.00
2022-09-04T20:37:25.733Z,100.00
2022-09-04T20:40:04.144Z,100.00
2022-09-04T20:42:40.175Z,100.00
2022-09-04T20:48:55.129Z,100.00
2022-09-04T20:52:48.682Z,100.00
2022-09-04T20:52:50.862Z,100.00
2022-09-04T20:55:05.695Z,100.00
2022-09-04T21:03:09.575Z,100.00
2022-09-04T21:03:20.357Z,100.00
2022-09-04T21:04:14.413Z,100.00
2022-09-04T21:06:52.104Z,100.00
2022-09-04T21:09:29.511Z,100.00
2022-09-04T21:12:31.621Z,100.00
2022-09-04T21:15:23.203Z,100.00
2022-09-04T21:18:29.456Z,100.00
2022-09-04T21:21:21.618Z,100.00
2022-09-04T21:24:25.437Z,100.00
2022-09-04T21:27:09.077Z,100.00
2022-09-04T21:30:07.025Z,100.00
2022-09-04T21:33:27.188Z,100.00
2022-09-04T21:36:26.601Z,100.00
2022-09-04T21:38:56.874Z,100.00
2022-09-04T21:42:17.346Z,100.00
2022-09-04T21:45:12.326Z,100.00
2022-09-04T21:47:45.666Z,100.00
2022-09-04T21:50:23.293Z,100.00
2022-09-04T21:53:27.754Z,100.00
2022-09-04T22:00:32.061Z,100.00
2022-09-04T22:02:29.145Z,100.00
2022-09-04T22:02:52.823Z,100.00
2022-09-04T22:05:21.203Z,100.00
2022-09-04T22:12:25.840Z,100.00
2022-09-04T22:13:43.500Z,100.00
2022-09-04T22:13:49.259Z,100.00
2022-09-04T22:16:41.983Z,100.00
2022-09-04T22:19:16.725Z,100.00
2022-09-04T22:22:03.486Z,100.00
2022-09-04T22:24:53.024Z,100.00
2022-09-04T22:27:25.686Z,100.00
2022-09-04T22:30:11.669Z,100.00
2022-09-04T22:33:07.300Z,100.00
2022-09-04T22:35:40.318Z,100.00
2022-09-04T22:38:25.498Z,100.00
2022-09-04T22:41:10.607Z,100.00
2022-09-04T22:43:46.565Z,100.00
2022-09-04T22:46:33.036Z,100.00
2022-09-04T22:49:22.500Z,100.00
2022-09-04T22:52:33.394Z,100.00
2022-09-04T22:55:29.263Z,100.00
2022-09-04T22:58:31.782Z,100.00
2022-09-04T23:01:39.938Z,100.00
2022-09-04T23:04:12.775Z,100.00
2022-09-04T23:08:34.549Z,100.00
2022-09-04T23:13:53.602Z,100.00
2022-09-04T23:14:02.409Z,100.00
2022-09-04T23:16:23.400Z,100.00
2022-09-04T23:26:32.481Z,100.00
2022-09-04T23:26:41.586Z,100.00
2022-09-04T23:26:44.992Z,100.00
2022-09-04T23:28:51.663Z,100.00
2022-09-04T23:32:13.366Z,100.00
2022-09-04T23:35:16.343Z,100.00
2022-09-04T23:38:10.871Z,100.00
2022-09-04T23:41:30.703Z,100.00
2022-09-04T23:44:47.050Z,100.00
2022-09-04T23:47:57.211Z,100.00
2022-09-04T23:50:57.608Z,100.00
2022-09-04T23:54:25.293Z,100.00
2022-09-04T23:57:27.953Z,100.00
